Saturday, January 20, 2018, 10:06 AM EST
Back to Local

KIAG, Niagara Falls International Airport

Location: Niagara Falls, NY, United States Lat: 43.117
Local Time: 10:06 AM EST (15:06 GMT) Lon: -78.933
Time Zone: US/Eastern Elev: 583 ft

Show me the last for .
Show Coded

Time T Td Feel RH Dir Speed Gust Alt SLP Vis Weather Sky Remarks
2018-01-20 09:53 39 26 27 59 230° 18 31 29.87 29.90 10 CLR Peak wind: 31 mph (27 kts) from 250° at 57 min
2018-01-20 08:53 38 26 26 61 240° 21 29 29.85 29.89 10 CLR Peak wind: 34 mph (30 kts) from 260° at 02 min
2018-01-20 07:53 37 25 23 61 250° 29 38 29.81 29.85 10 CLR Peak wind: 43 mph (38 kts) from 230° at 03 min
2018-01-20 06:53 37 25 22 61 230° 26 45 29.77 29.80 10 CLR Peak wind: 44 mph (39 kts) from 240° at 13 min
6-hr Min Temp (7am): 37.0°F
6-hr Max Temp (7am): 39.9°F
2018-01-20 05:53 38 24 24 56 240° 33 43 29.77 29.81 10 CLR Peak wind: 46 mph (40 kts) from 230° at 06 min
2018-01-20 04:53 38 23 24 54 240° 32 44 29.74 29.78 10 CLR Peak wind: 46 mph (40 kts) from 250° at 26 min
2018-01-20 03:53 38 23 24 54 230° 30 40 29.72 29.76 10 CLR Peak wind: 44 mph (39 kts) from 220° at 40 min
2018-01-20 01:53 39 22 25 49 230° 30 44 29.70 29.74 10 CLR Peak wind: 47 mph (41 kts) from 220° at 27 min
2018-01-20 00:53 40 22 27 48 220° 26 39 29.70 29.73 10 CLR Peak wind: 48 mph (42 kts) from 210° at 36 min
6-hr Min Temp (1am): 37.0°F
6-hr Max Temp (1am): 39.9°F
2018-01-19 23:53 39 22 25 49 220° 31 43 29.70 29.74 10 CLR Peak wind: 44 mph (39 kts) from 230° at 36 min
24-hr Min Temp (12am): 28.0°F
24-hr Max Temp (12am): 39.0°F
2018-01-19 22:53 39 22 25 49 220° 28 43 29.73 29.77 10 CLR Peak wind: 42 mph (37 kts) from 220° at 46 min
2018-01-19 21:53 39 21 26 48 220° 28 36 29.75 29.78 10 CLR Peak wind: 40 mph (35 kts) from 210° at 22 min
2018-01-19 20:53 38 22 25 52 220° 25 33 29.77 29.80 10 CLR Peak wind: 35 mph (31 kts) from 220° at 02 min
2018-01-19 19:53 37 22 24 53 220° 24 32 29.79 29.83 10 CLR Peak wind: 35 mph (31 kts) from 230° at 20 min
2018-01-19 18:53 37 20 23 49 220° 25 37 29.80 29.84 10 CLR Peak wind: 36 mph (32 kts) from 240° at 45 min
6-hr Min Temp (7pm): 32.0°F
6-hr Max Temp (7pm): 37.0°F
2018-01-19 17:53 36 20 22 51 230° 23 33 29.81 29.85 10 CLR Peak wind: 36 mph (32 kts) from 220° at 01 min
2018-01-19 16:53 36 19 22 49 230° 23 33 29.82 29.86 10 CLR Peak wind: 37 mph (33 kts) from 220° at 33 min
2018-01-19 15:53 35 19 21 51 220° 22 35 29.83 29.87 10 CLR Peak wind: 41 mph (36 kts) from 230° at 21 min
2018-01-19 14:53 34 19 19 53 220° 25 35 29.84 29.88 10 CLR Peak wind: 42 mph (37 kts) from 220° at 40 min
2018-01-19 13:53 33 19 18 55 230° 29 37 29.86 29.90 10 CLR Peak wind: 39 mph (34 kts) from 230° at 16 min
2018-01-19 12:53 32 18 16 55 230° 26 40 29.89 29.93 10 CLR Peak wind: 40 mph (35 kts) from 230° at 45 min
6-hr Min Temp (1pm): 28.0°F
6-hr Max Temp (1pm): 32.0°F
2018-01-19 11:53 31 18 15 58 230° 24 33 29.92 29.96 10 CLR Peak wind: 35 mph (31 kts) from 220° at 41 min
2018-01-19 10:53 30 18 14 60 230° 23 36 29.94 29.98 10 SCT028 Peak wind: 35 mph (31 kts) from 230° at 53 min

Support USWX by starting your Amazon purchase here.